sensor_id;sensor_type;location;lat;lon;timestamp;P1;durP1;ratioP1;P2;durP2;ratioP2
13799;SDS011;6971;50.028;9.258;2023-02-08T00:01:29;9.13;;;6.20;;
13799;SDS011;6971;50.028;9.258;2023-02-08T00:06:33;7.13;;;5.33;;
13799;SDS011;6971;50.028;9.258;2023-02-08T00:11:37;8.53;;;5.40;;
13799;SDS011;6971;50.028;9.258;2023-02-08T00:16:42;7.43;;;5.23;;
13799;SDS011;6971;50.028;9.258;2023-02-08T00:21:47;8.77;;;6.20;;
13799;SDS011;6971;50.028;9.258;2023-02-08T00:26:51;8.40;;;5.70;;
13799;SDS011;6971;50.028;9.258;2023-02-08T00:31:56;9.43;;;4.90;;
13799;SDS011;6971;50.028;9.258;2023-02-08T00:37:02;7.63;;;5.37;;
13799;SDS011;6971;50.028;9.258;2023-02-08T00:42:06;8.63;;;5.73;;
13799;SDS011;6971;50.028;9.258;2023-02-08T00:47:11;7.47;;;4.90;;
13799;SDS011;6971;50.028;9.258;2023-02-08T00:52:17;8.77;;;6.13;;
13799;SDS011;6971;50.028;9.258;2023-02-08T00:57:23;7.07;;;5.30;;
13799;SDS011;6971;50.028;9.258;2023-02-08T01:02:27;6.93;;;4.70;;
13799;SDS011;6971;50.028;9.258;2023-02-08T01:07:32;9.97;;;6.10;;
13799;SDS011;6971;50.028;9.258;2023-02-08T01:12:37;9.33;;;5.40;;
13799;SDS011;6971;50.028;9.258;2023-02-08T01:17:41;9.23;;;6.03;;
13799;SDS011;6971;50.028;9.258;2023-02-08T01:22:45;10.07;;;6.57;;
13799;SDS011;6971;50.028;9.258;2023-02-08T01:27:49;8.07;;;5.57;;
13799;SDS011;6971;50.028;9.258;2023-02-08T01:32:53;8.53;;;5.97;;
13799;SDS011;6971;50.028;9.258;2023-02-08T01:37:57;8.37;;;5.83;;
13799;SDS011;6971;50.028;9.258;2023-02-08T01:43:04;8.70;;;5.40;;
13799;SDS011;6971;50.028;9.258;2023-02-08T01:48:41;7.80;;;5.63;;
13799;SDS011;6971;50.028;9.258;2023-02-08T01:53:44;8.87;;;5.73;;
13799;SDS011;6971;50.028;9.258;2023-02-08T01:58:51;9.40;;;5.70;;
13799;SDS011;6971;50.028;9.258;2023-02-08T02:04:03;6.13;;;5.13;;
13799;SDS011;6971;50.028;9.258;2023-02-08T02:09:18;9.87;;;6.03;;
13799;SDS011;6971;50.028;9.258;2023-02-08T02:14:28;10.33;;;6.33;;
13799;SDS011;6971;50.028;9.258;2023-02-08T02:25:29;8.80;;;5.83;;
13799;SDS011;6971;50.028;9.258;2023-02-08T02:52:44;7.60;;;5.90;;
13799;SDS011;6971;50.028;9.258;2023-02-08T02:57:53;10.20;;;6.17;;
13799;SDS011;6971;50.028;9.258;2023-02-08T03:03:01;9.03;;;6.07;;
13799;SDS011;6971;50.028;9.258;2023-02-08T03:08:08;11.70;;;6.23;;
13799;SDS011;6971;50.028;9.258;2023-02-08T03:13:42;10.90;;;6.37;;
13799;SDS011;6971;50.028;9.258;2023-02-08T03:19:08;9.60;;;6.80;;
13799;SDS011;6971;50.028;9.258;2023-02-08T03:24:24;13.93;;;6.97;;
13799;SDS011;6971;50.028;9.258;2023-02-08T03:29:42;9.30;;;6.67;;
13799;SDS011;6971;50.028;9.258;2023-02-08T03:40:44;10.37;;;6.93;;
13799;SDS011;6971;50.028;9.258;2023-02-08T03:45:53;9.03;;;6.90;;
13799;SDS011;6971;50.028;9.258;2023-02-08T03:51:04;13.33;;;7.60;;
13799;SDS011;6971;50.028;9.258;2023-02-08T03:56:17;12.00;;;7.07;;
13799;SDS011;6971;50.028;9.258;2023-02-08T04:01:29;9.80;;;7.03;;
13799;SDS011;6971;50.028;9.258;2023-02-08T04:06:58;9.50;;;7.00;;
13799;SDS011;6971;50.028;9.258;2023-02-08T04:12:02;9.20;;;6.23;;
13799;SDS011;6971;50.028;9.258;2023-02-08T04:17:07;10.37;;;6.47;;
13799;SDS011;6971;50.028;9.258;2023-02-08T04:22:11;10.33;;;6.50;;
13799;SDS011;6971;50.028;9.258;2023-02-08T04:27:16;9.17;;;6.53;;
13799;SDS011;6971;50.028;9.258;2023-02-08T04:32:20;12.47;;;7.57;;
13799;SDS011;6971;50.028;9.258;2023-02-08T04:37:23;11.60;;;7.57;;
13799;SDS011;6971;50.028;9.258;2023-02-08T04:42:28;11.40;;;8.30;;
13799;SDS011;6971;50.028;9.258;2023-02-08T04:47:33;12.70;;;8.40;;
13799;SDS011;6971;50.028;9.258;2023-02-08T04:52:36;10.30;;;6.63;;
13799;SDS011;6971;50.028;9.258;2023-02-08T04:57:40;11.50;;;7.90;;
13799;SDS011;6971;50.028;9.258;2023-02-08T05:02:44;10.97;;;7.20;;
13799;SDS011;6971;50.028;9.258;2023-02-08T05:07:48;9.30;;;6.67;;
13799;SDS011;6971;50.028;9.258;2023-02-08T05:13:09;11.73;;;7.13;;
13799;SDS011;6971;50.028;9.258;2023-02-08T05:18:12;12.27;;;7.83;;
13799;SDS011;6971;50.028;9.258;2023-02-08T05:23:16;13.30;;;7.77;;
13799;SDS011;6971;50.028;9.258;2023-02-08T05:28:21;12.00;;;7.20;;
13799;SDS011;6971;50.028;9.258;2023-02-08T05:33:24;11.40;;;7.27;;
13799;SDS011;6971;50.028;9.258;2023-02-08T05:38:28;11.83;;;7.63;;
13799;SDS011;6971;50.028;9.258;2023-02-08T05:43:33;10.20;;;6.73;;
13799;SDS011;6971;50.028;9.258;2023-02-08T05:48:37;10.80;;;7.43;;
13799;SDS011;6971;50.028;9.258;2023-02-08T05:53:41;11.10;;;7.50;;
13799;SDS011;6971;50.028;9.258;2023-02-08T05:58:47;12.50;;;7.80;;
13799;SDS011;6971;50.028;9.258;2023-02-08T06:03:51;12.90;;;7.23;;
13799;SDS011;6971;50.028;9.258;2023-02-08T06:08:57;12.07;;;7.73;;
13799;SDS011;6971;50.028;9.258;2023-02-08T06:14:17;11.97;;;8.30;;
13799;SDS011;6971;50.028;9.258;2023-02-08T06:19:37;11.80;;;7.87;;
13799;SDS011;6971;50.028;9.258;2023-02-08T06:24:58;15.57;;;8.97;;
13799;SDS011;6971;50.028;9.258;2023-02-08T06:30:18;11.63;;;8.13;;
13799;SDS011;6971;50.028;9.258;2023-02-08T06:35:39;12.23;;;7.50;;
13799;SDS011;6971;50.028;9.258;2023-02-08T06:40:59;10.93;;;7.63;;
13799;SDS011;6971;50.028;9.258;2023-02-08T06:46:19;13.27;;;8.60;;
13799;SDS011;6971;50.028;9.258;2023-02-08T06:51:40;13.17;;;9.17;;
13799;SDS011;6971;50.028;9.258;2023-02-08T06:57:02;11.20;;;8.53;;
13799;SDS011;6971;50.028;9.258;2023-02-08T07:02:23;13.67;;;8.97;;
13799;SDS011;6971;50.028;9.258;2023-02-08T07:07:43;13.43;;;8.50;;
13799;SDS011;6971;50.028;9.258;2023-02-08T07:13:04;12.97;;;8.30;;
13799;SDS011;6971;50.028;9.258;2023-02-08T07:18:24;15.83;;;9.30;;
13799;SDS011;6971;50.028;9.258;2023-02-08T07:23:44;13.30;;;8.77;;
13799;SDS011;6971;50.028;9.258;2023-02-08T07:29:05;13.93;;;9.20;;
13799;SDS011;6971;50.028;9.258;2023-02-08T07:34:25;14.47;;;9.97;;
13799;SDS011;6971;50.028;9.258;2023-02-08T07:39:48;13.63;;;9.33;;
13799;SDS011;6971;50.028;9.258;2023-02-08T07:45:08;14.20;;;9.20;;
13799;SDS011;6971;50.028;9.258;2023-02-08T07:50:28;13.67;;;9.27;;
13799;SDS011;6971;50.028;9.258;2023-02-08T07:55:49;11.97;;;8.80;;
13799;SDS011;6971;50.028;9.258;2023-02-08T08:01:09;19.50;;;11.63;;
13799;SDS011;6971;50.028;9.258;2023-02-08T08:06:30;42.50;;;25.43;;
13799;SDS011;6971;50.028;9.258;2023-02-08T08:11:50;34.00;;;20.40;;
13799;SDS011;6971;50.028;9.258;2023-02-08T08:17:10;28.23;;;16.83;;
13799;SDS011;6971;50.028;9.258;2023-02-08T08:22:31;25.57;;;17.07;;
13799;SDS011;6971;50.028;9.258;2023-02-08T08:27:51;24.80;;;15.77;;
13799;SDS011;6971;50.028;9.258;2023-02-08T08:33:12;32.07;;;17.40;;
13799;SDS011;6971;50.028;9.258;2023-02-08T08:38:33;23.83;;;16.23;;
13799;SDS011;6971;50.028;9.258;2023-02-08T08:43:54;22.93;;;15.13;;
13799;SDS011;6971;50.028;9.258;2023-02-08T08:49:14;23.47;;;15.90;;
13799;SDS011;6971;50.028;9.258;2023-02-08T08:54:34;18.10;;;11.93;;
13799;SDS011;6971;50.028;9.258;2023-02-08T08:59:55;17.10;;;11.80;;
13799;SDS011;6971;50.028;9.258;2023-02-08T09:05:16;19.27;;;12.20;;
13799;SDS011;6971;50.028;9.258;2023-02-08T09:10:36;18.50;;;11.47;;
13799;SDS011;6971;50.028;9.258;2023-02-08T09:15:57;16.47;;;11.60;;
13799;SDS011;6971;50.028;9.258;2023-02-08T09:21:19;15.77;;;11.83;;
13799;SDS011;6971;50.028;9.258;2023-02-08T09:26:43;14.00;;;10.17;;
13799;SDS011;6971;50.028;9.258;2023-02-08T09:32:05;16.77;;;11.80;;
13799;SDS011;6971;50.028;9.258;2023-02-08T09:37:25;16.30;;;12.10;;
13799;SDS011;6971;50.028;9.258;2023-02-08T09:42:47;16.80;;;11.20;;
13799;SDS011;6971;50.028;9.258;2023-02-08T09:48:24;15.77;;;11.73;;
13799;SDS011;6971;50.028;9.258;2023-02-08T09:53:49;19.93;;;11.97;;
13799;SDS011;6971;50.028;9.258;2023-02-08T09:59:15;15.83;;;11.30;;
13799;SDS011;6971;50.028;9.258;2023-02-08T10:05:04;15.03;;;11.23;;
13799;SDS011;6971;50.028;9.258;2023-02-08T10:10:39;17.47;;;11.97;;
13799;SDS011;6971;50.028;9.258;2023-02-08T10:16:20;17.27;;;11.80;;
13799;SDS011;6971;50.028;9.258;2023-02-08T10:22:02;14.20;;;10.07;;
13799;SDS011;6971;50.028;9.258;2023-02-08T10:33:42;15.93;;;10.93;;
13799;SDS011;6971;50.028;9.258;2023-02-08T10:39:15;17.73;;;11.53;;
13799;SDS011;6971;50.028;9.258;2023-02-08T10:45:01;16.10;;;9.73;;
13799;SDS011;6971;50.028;9.258;2023-02-08T10:50:56;15.07;;;10.17;;
13799;SDS011;6971;50.028;9.258;2023-02-08T11:02:25;13.73;;;9.93;;
13799;SDS011;6971;50.028;9.258;2023-02-08T11:07:55;14.53;;;10.30;;
13799;SDS011;6971;50.028;9.258;2023-02-08T11:14:04;16.87;;;9.83;;
13799;SDS011;6971;50.028;9.258;2023-02-08T11:19:34;14.50;;;10.77;;
13799;SDS011;6971;50.028;9.258;2023-02-08T11:25:03;17.83;;;11.03;;
13799;SDS011;6971;50.028;9.258;2023-02-08T11:30:25;15.77;;;11.57;;
13799;SDS011;6971;50.028;9.258;2023-02-08T11:35:52;12.37;;;9.07;;
13799;SDS011;6971;50.028;9.258;2023-02-08T11:41:16;12.37;;;9.23;;
13799;SDS011;6971;50.028;9.258;2023-02-08T11:46:38;11.40;;;8.87;;
13799;SDS011;6971;50.028;9.258;2023-02-08T11:52:01;13.47;;;9.10;;
13799;SDS011;6971;50.028;9.258;2023-02-08T11:57:24;16.10;;;9.87;;
13799;SDS011;6971;50.028;9.258;2023-02-08T12:02:48;12.47;;;10.63;;
13799;SDS011;6971;50.028;9.258;2023-02-08T12:53:45;12.57;;;9.53;;
13799;SDS011;6971;50.028;9.258;2023-02-08T12:58:51;12.60;;;9.17;;
13799;SDS011;6971;50.028;9.258;2023-02-08T13:04:11;16.23;;;8.37;;
13799;SDS011;6971;50.028;9.258;2023-02-08T13:09:24;13.30;;;8.70;;
13799;SDS011;6971;50.028;9.258;2023-02-08T13:14:39;12.50;;;9.67;;
13799;SDS011;6971;50.028;9.258;2023-02-08T13:19:47;12.63;;;9.67;;
13799;SDS011;6971;50.028;9.258;2023-02-08T13:24:55;12.00;;;9.00;;
13799;SDS011;6971;50.028;9.258;2023-02-08T13:29:56;12.67;;;8.80;;
13799;SDS011;6971;50.028;9.258;2023-02-08T13:35:17;11.73;;;9.10;;
13799;SDS011;6971;50.028;9.258;2023-02-08T13:40:27;11.00;;;8.60;;
13799;SDS011;6971;50.028;9.258;2023-02-08T13:45:37;12.80;;;9.67;;
13799;SDS011;6971;50.028;9.258;2023-02-08T13:55:57;11.70;;;8.20;;
13799;SDS011;6971;50.028;9.258;2023-02-08T14:01:00;10.40;;;7.20;;
13799;SDS011;6971;50.028;9.258;2023-02-08T14:06:06;15.63;;;10.10;;
13799;SDS011;6971;50.028;9.258;2023-02-08T14:11:31;13.73;;;10.13;;
13799;SDS011;6971;50.028;9.258;2023-02-08T14:16:42;11.23;;;8.30;;
13799;SDS011;6971;50.028;9.258;2023-02-08T14:32:26;12.00;;;8.83;;
13799;SDS011;6971;50.028;9.258;2023-02-08T14:37:30;11.13;;;8.43;;
13799;SDS011;6971;50.028;9.258;2023-02-08T14:48:49;86.70;;;45.77;;
13799;SDS011;6971;50.028;9.258;2023-02-08T14:53:47;31.17;;;20.07;;
13799;SDS011;6971;50.028;9.258;2023-02-08T15:04:28;15.70;;;9.60;;
13799;SDS011;6971;50.028;9.258;2023-02-08T15:09:30;12.97;;;9.20;;
13799;SDS011;6971;50.028;9.258;2023-02-08T15:14:35;12.97;;;9.33;;
13799;SDS011;6971;50.028;9.258;2023-02-08T15:19:38;12.47;;;8.97;;
13799;SDS011;6971;50.028;9.258;2023-02-08T15:24:49;17.47;;;11.70;;
13799;SDS011;6971;50.028;9.258;2023-02-08T15:29:54;18.33;;;12.13;;
13799;SDS011;6971;50.028;9.258;2023-02-08T15:34:56;24.73;;;16.43;;
13799;SDS011;6971;50.028;9.258;2023-02-08T15:39:59;32.80;;;17.13;;
13799;SDS011;6971;50.028;9.258;2023-02-08T15:45:01;17.27;;;10.77;;
13799;SDS011;6971;50.028;9.258;2023-02-08T15:50:04;16.70;;;11.20;;
13799;SDS011;6971;50.028;9.258;2023-02-08T15:55:06;17.30;;;11.20;;
13799;SDS011;6971;50.028;9.258;2023-02-08T16:00:25;15.70;;;9.63;;
13799;SDS011;6971;50.028;9.258;2023-02-08T16:05:34;12.17;;;9.07;;
13799;SDS011;6971;50.028;9.258;2023-02-08T16:10:42;13.30;;;8.27;;
13799;SDS011;6971;50.028;9.258;2023-02-08T16:15:49;9.47;;;6.57;;
13799;SDS011;6971;50.028;9.258;2023-02-08T16:20:58;10.73;;;7.73;;
13799;SDS011;6971;50.028;9.258;2023-02-08T16:26:10;12.50;;;6.53;;
13799;SDS011;6971;50.028;9.258;2023-02-08T16:31:24;14.27;;;7.30;;
13799;SDS011;6971;50.028;9.258;2023-02-08T16:36:30;10.77;;;7.20;;
13799;SDS011;6971;50.028;9.258;2023-02-08T16:42:17;11.83;;;7.57;;
13799;SDS011;6971;50.028;9.258;2023-02-08T16:47:23;8.97;;;6.77;;
13799;SDS011;6971;50.028;9.258;2023-02-08T16:52:24;11.50;;;7.10;;
13799;SDS011;6971;50.028;9.258;2023-02-08T16:57:36;9.23;;;6.40;;
13799;SDS011;6971;50.028;9.258;2023-02-08T17:02:38;12.47;;;6.70;;
13799;SDS011;6971;50.028;9.258;2023-02-08T17:07:38;13.47;;;7.60;;
13799;SDS011;6971;50.028;9.258;2023-02-08T17:12:39;10.60;;;6.67;;
13799;SDS011;6971;50.028;9.258;2023-02-08T17:17:39;13.03;;;7.40;;
13799;SDS011;6971;50.028;9.258;2023-02-08T17:22:39;15.30;;;8.87;;
13799;SDS011;6971;50.028;9.258;2023-02-08T17:27:39;10.63;;;6.93;;
13799;SDS011;6971;50.028;9.258;2023-02-08T17:32:40;11.67;;;6.97;;
13799;SDS011;6971;50.028;9.258;2023-02-08T17:37:40;13.10;;;8.47;;
13799;SDS011;6971;50.028;9.258;2023-02-08T17:42:41;10.87;;;7.27;;
13799;SDS011;6971;50.028;9.258;2023-02-08T17:47:41;17.17;;;8.43;;
13799;SDS011;6971;50.028;9.258;2023-02-08T17:52:41;20.03;;;12.97;;
13799;SDS011;6971;50.028;9.258;2023-02-08T17:57:42;12.43;;;7.43;;
13799;SDS011;6971;50.028;9.258;2023-02-08T18:02:44;11.97;;;7.47;;
13799;SDS011;6971;50.028;9.258;2023-02-08T18:07:46;14.13;;;7.37;;
13799;SDS011;6971;50.028;9.258;2023-02-08T18:12:46;14.63;;;7.70;;
13799;SDS011;6971;50.028;9.258;2023-02-08T18:17:47;12.23;;;7.27;;
13799;SDS011;6971;50.028;9.258;2023-02-08T18:22:49;11.93;;;8.10;;
13799;SDS011;6971;50.028;9.258;2023-02-08T18:27:49;12.83;;;8.63;;
13799;SDS011;6971;50.028;9.258;2023-02-08T18:32:49;13.17;;;8.60;;
13799;SDS011;6971;50.028;9.258;2023-02-08T18:37:50;12.87;;;8.13;;
13799;SDS011;6971;50.028;9.258;2023-02-08T18:42:52;14.33;;;8.50;;
13799;SDS011;6971;50.028;9.258;2023-02-08T18:47:52;12.83;;;9.20;;
13799;SDS011;6971;50.028;9.258;2023-02-08T18:52:53;13.03;;;10.27;;
13799;SDS011;6971;50.028;9.258;2023-02-08T18:57:53;12.77;;;8.73;;
13799;SDS011;6971;50.028;9.258;2023-02-08T19:02:53;14.40;;;8.60;;
13799;SDS011;6971;50.028;9.258;2023-02-08T19:07:54;20.60;;;10.53;;
13799;SDS011;6971;50.028;9.258;2023-02-08T19:12:54;18.30;;;10.57;;
13799;SDS011;6971;50.028;9.258;2023-02-08T19:17:55;17.33;;;11.00;;
13799;SDS011;6971;50.028;9.258;2023-02-08T19:22:57;12.50;;;9.27;;
13799;SDS011;6971;50.028;9.258;2023-02-08T19:27:57;15.27;;;10.27;;
13799;SDS011;6971;50.028;9.258;2023-02-08T19:32:58;18.23;;;11.23;;
13799;SDS011;6971;50.028;9.258;2023-02-08T19:37:58;18.47;;;11.60;;
13799;SDS011;6971;50.028;9.258;2023-02-08T19:42:59;20.43;;;13.70;;
13799;SDS011;6971;50.028;9.258;2023-02-08T19:47:59;16.93;;;9.77;;
13799;SDS011;6971;50.028;9.258;2023-02-08T19:53:00;14.83;;;8.97;;
13799;SDS011;6971;50.028;9.258;2023-02-08T19:58:01;13.90;;;9.13;;
13799;SDS011;6971;50.028;9.258;2023-02-08T20:03:01;13.10;;;7.80;;
13799;SDS011;6971;50.028;9.258;2023-02-08T20:08:01;16.80;;;10.53;;
13799;SDS011;6971;50.028;9.258;2023-02-08T20:13:02;15.47;;;10.23;;
13799;SDS011;6971;50.028;9.258;2023-02-08T20:18:06;18.20;;;11.20;;
13799;SDS011;6971;50.028;9.258;2023-02-08T20:23:09;13.40;;;8.63;;
13799;SDS011;6971;50.028;9.258;2023-02-08T20:28:12;19.97;;;12.33;;
13799;SDS011;6971;50.028;9.258;2023-02-08T20:33:12;22.27;;;13.60;;
13799;SDS011;6971;50.028;9.258;2023-02-08T20:38:12;18.83;;;10.87;;
13799;SDS011;6971;50.028;9.258;2023-02-08T20:43:13;21.97;;;12.93;;
13799;SDS011;6971;50.028;9.258;2023-02-08T20:48:13;21.27;;;12.93;;
13799;SDS011;6971;50.028;9.258;2023-02-08T20:53:14;18.43;;;12.37;;
13799;SDS011;6971;50.028;9.258;2023-02-08T20:58:14;21.07;;;13.20;;
13799;SDS011;6971;50.028;9.258;2023-02-08T21:03:14;19.93;;;12.37;;
13799;SDS011;6971;50.028;9.258;2023-02-08T21:08:15;19.97;;;12.33;;
13799;SDS011;6971;50.028;9.258;2023-02-08T21:13:15;18.80;;;11.93;;
13799;SDS011;6971;50.028;9.258;2023-02-08T21:18:16;19.30;;;11.60;;
13799;SDS011;6971;50.028;9.258;2023-02-08T21:23:16;22.63;;;11.80;;
13799;SDS011;6971;50.028;9.258;2023-02-08T21:28:17;19.20;;;11.30;;
13799;SDS011;6971;50.028;9.258;2023-02-08T21:33:17;18.80;;;11.83;;
13799;SDS011;6971;50.028;9.258;2023-02-08T21:38:17;19.53;;;11.97;;
13799;SDS011;6971;50.028;9.258;2023-02-08T21:43:18;20.53;;;12.33;;
13799;SDS011;6971;50.028;9.258;2023-02-08T21:48:18;19.30;;;12.10;;
13799;SDS011;6971;50.028;9.258;2023-02-08T21:53:21;19.57;;;11.53;;
13799;SDS011;6971;50.028;9.258;2023-02-08T21:58:40;20.63;;;12.77;;
13799;SDS011;6971;50.028;9.258;2023-02-08T22:03:40;18.13;;;11.97;;
13799;SDS011;6971;50.028;9.258;2023-02-08T22:08:41;21.47;;;12.60;;
13799;SDS011;6971;50.028;9.258;2023-02-08T22:13:42;20.70;;;11.43;;
13799;SDS011;6971;50.028;9.258;2023-02-08T22:18:42;20.63;;;13.43;;
13799;SDS011;6971;50.028;9.258;2023-02-08T22:23:42;17.27;;;11.17;;
13799;SDS011;6971;50.028;9.258;2023-02-08T22:28:45;17.50;;;11.07;;
13799;SDS011;6971;50.028;9.258;2023-02-08T22:33:45;21.60;;;12.73;;
13799;SDS011;6971;50.028;9.258;2023-02-08T22:38:46;19.27;;;12.17;;
13799;SDS011;6971;50.028;9.258;2023-02-08T22:43:46;18.17;;;12.30;;
13799;SDS011;6971;50.028;9.258;2023-02-08T22:48:47;19.87;;;11.53;;
13799;SDS011;6971;50.028;9.258;2023-02-08T22:53:48;21.73;;;14.00;;
13799;SDS011;6971;50.028;9.258;2023-02-08T22:58:48;23.10;;;13.20;;
13799;SDS011;6971;50.028;9.258;2023-02-08T23:03:49;27.73;;;15.77;;
13799;SDS011;6971;50.028;9.258;2023-02-08T23:08:49;24.83;;;15.57;;
13799;SDS011;6971;50.028;9.258;2023-02-08T23:13:49;23.53;;;13.13;;
13799;SDS011;6971;50.028;9.258;2023-02-08T23:18:50;23.93;;;14.80;;
13799;SDS011;6971;50.028;9.258;2023-02-08T23:23:50;24.17;;;14.33;;
13799;SDS011;6971;50.028;9.258;2023-02-08T23:28:52;25.67;;;15.10;;
13799;SDS011;6971;50.028;9.258;2023-02-08T23:33:53;28.17;;;15.90;;
13799;SDS011;6971;50.028;9.258;2023-02-08T23:38:53;27.57;;;16.13;;
13799;SDS011;6971;50.028;9.258;2023-02-08T23:43:54;25.43;;;16.07;;
13799;SDS011;6971;50.028;9.258;2023-02-08T23:48:54;26.53;;;16.03;;
13799;SDS011;6971;50.028;9.258;2023-02-08T23:53:55;29.73;;;15.87;;
13799;SDS011;6971;50.028;9.258;2023-02-08T23:58:56;27.30;;;15.57;;
